createdAt,value
2023-04-25T00:00:31.319Z,7.86
2023-04-25T00:04:35.002Z,7.80
2023-04-25T00:08:37.234Z,7.76
2023-04-25T00:12:39.967Z,7.81
2023-04-25T00:16:42.152Z,7.86
2023-04-25T00:20:47.397Z,7.82
2023-04-25T00:24:49.455Z,7.79
2023-04-25T00:28:51.542Z,7.71
2023-04-25T00:32:54.235Z,7.63
2023-04-25T00:36:56.433Z,7.59
2023-04-25T00:40:58.578Z,7.57
2023-04-25T00:45:01.750Z,7.52
2023-04-25T00:49:03.784Z,7.51
2023-04-25T00:53:06.159Z,7.49
2023-04-25T00:57:08.302Z,7.43
2023-04-25T01:01:11.789Z,7.44
2023-04-25T01:05:14.412Z,7.34
2023-04-25T01:09:17.045Z,7.30
2023-04-25T01:13:19.123Z,7.24
2023-04-25T01:17:22.080Z,7.20
2023-04-25T01:21:28.112Z,7.17
2023-04-25T01:25:31.750Z,7.10
2023-04-25T01:29:35.568Z,7.05
2023-04-25T01:33:38.312Z,6.99
2023-04-25T01:37:41.896Z,6.91
2023-04-25T01:41:45.589Z,6.87
2023-04-25T01:45:48.913Z,6.87
2023-04-25T01:49:51.011Z,6.81
2023-04-25T01:53:53.474Z,6.83
2023-04-25T01:57:55.577Z,6.82
2023-04-25T02:02:06.609Z,6.80
2023-04-25T02:06:10.783Z,6.83
2023-04-25T02:10:17.749Z,6.80
2023-04-25T02:14:30.707Z,6.78
2023-04-25T02:18:38.496Z,6.76
2023-04-25T02:22:43.253Z,6.72
2023-04-25T02:26:45.419Z,6.70
2023-04-25T02:30:48.685Z,6.70
2023-04-25T02:34:50.884Z,6.66
2023-04-25T02:38:53.077Z,6.60
2023-04-25T02:42:56.554Z,6.46
2023-04-25T02:46:58.576Z,6.38
2023-04-25T02:51:00.689Z,6.22
2023-04-25T02:55:03.197Z,6.11
2023-04-25T02:59:06.496Z,6.01
2023-04-25T03:03:08.650Z,5.91
2023-04-25T03:07:11.872Z,5.79
2023-04-25T03:11:13.984Z,5.77
2023-04-25T03:15:17.660Z,5.71
2023-04-25T03:19:19.917Z,5.56
2023-04-25T03:23:22.176Z,5.45
2023-04-25T03:27:24.398Z,5.28
2023-04-25T03:31:27.115Z,5.20
2023-04-25T03:35:29.561Z,5.12
2023-04-25T03:39:31.953Z,4.98
2023-04-25T03:43:34.519Z,4.93
2023-04-25T03:47:41.330Z,4.86
2023-04-25T03:51:43.455Z,4.76
2023-04-25T03:55:45.607Z,4.69
2023-04-25T03:59:48.880Z,4.67
2023-04-25T04:03:52.130Z,4.69
2023-04-25T04:07:55.485Z,4.64
2023-04-25T04:11:58.164Z,4.61
2023-04-25T04:16:00.675Z,4.58
2023-04-25T04:20:04.556Z,4.59
2023-04-25T04:24:07.799Z,4.58
2023-04-25T04:28:23.079Z,4.58
2023-04-25T04:32:31.479Z,4.64
2023-04-25T04:36:34.460Z,4.67
2023-04-25T04:40:36.559Z,4.72
2023-04-25T04:44:45.672Z,4.75
2023-04-25T04:49:08.012Z,4.75
2023-04-25T04:53:16.183Z,4.67
2023-04-25T04:57:33.987Z,4.89
2023-04-25T05:01:48.010Z,5.10
2023-04-25T05:06:01.889Z,5.34
2023-04-25T05:10:21.829Z,5.44
2023-04-25T05:14:32.645Z,5.50
2023-04-25T05:18:48.609Z,5.56
2023-04-25T05:23:19.269Z,5.71
2023-04-25T05:27:43.014Z,5.93
2023-04-25T05:32:03.591Z,6.83
2023-04-25T05:36:07.388Z,10.28
2023-04-25T05:40:10.563Z,11.18
2023-04-25T05:44:32.137Z,9.96
2023-04-25T05:48:55.337Z,11.66
2023-04-25T05:53:12.640Z,13.95
2023-04-25T05:57:25.229Z,12.31
2023-04-25T06:01:27.963Z,10.22
2023-04-25T06:05:30.596Z,8.85
2023-04-25T06:09:32.687Z,8.16
2023-04-25T06:13:34.743Z,7.87
2023-04-25T06:17:37.145Z,7.64
2023-04-25T06:21:44.367Z,7.42
2023-04-25T06:25:46.621Z,7.38
2023-04-25T06:29:49.047Z,7.29
2023-04-25T06:33:51.799Z,7.30
2023-04-25T06:37:54.252Z,7.95
2023-04-25T06:41:58.516Z,8.39
2023-04-25T06:46:29.670Z,9.43
2023-04-25T06:50:34.939Z,11.38
2023-04-25T06:54:37.575Z,11.93
2023-04-25T06:58:52.633Z,12.03
2023-04-25T07:03:04.089Z,11.94
2023-04-25T07:07:06.428Z,10.84
2023-04-25T07:11:15.474Z,9.82
2023-04-25T07:15:17.533Z,8.89
2023-04-25T07:19:22.950Z,8.58
2023-04-25T07:23:25.174Z,8.72
2023-04-25T07:27:27.694Z,8.79
2023-04-25T07:31:34.364Z,8.82
2023-04-25T07:35:36.515Z,8.90
2023-04-25T07:39:38.581Z,8.82
2023-04-25T07:43:41.511Z,8.85
2023-04-25T07:47:43.699Z,8.87
2023-04-25T07:51:45.991Z,8.79
2023-04-25T07:55:51.612Z,8.75
2023-04-25T07:59:54.416Z,8.50
2023-04-25T08:03:58.101Z,8.45
2023-04-25T08:08:19.738Z,8.66
2023-04-25T08:12:23.470Z,8.64
2023-04-25T08:16:26.364Z,8.59
2023-04-25T08:20:29.088Z,8.66
2023-04-25T08:24:33.330Z,8.79
2023-04-25T08:28:35.761Z,8.79
2023-04-25T08:32:39.697Z,8.96
2023-04-25T08:37:00.795Z,9.01
2023-04-25T08:41:16.295Z,9.02
2023-04-25T08:45:18.339Z,9.17
2023-04-25T08:49:20.711Z,9.09
2023-04-25T08:53:28.234Z,9.06
2023-04-25T08:57:32.222Z,9.13
2023-04-25T09:01:35.987Z,9.35
2023-04-25T09:05:38.974Z,9.78
2023-04-25T09:09:41.206Z,9.66
2023-04-25T09:13:43.818Z,9.75
2023-04-25T09:18:08.496Z,9.70
2023-04-25T09:22:19.330Z,9.69
2023-04-25T09:26:22.329Z,9.87
2023-04-25T09:30:34.982Z,9.88
2023-04-25T09:34:44.773Z,9.79
2023-04-25T09:38:48.171Z,9.69
2023-04-25T09:43:24.271Z,9.35
2023-04-25T09:47:27.798Z,9.03
2023-04-25T09:51:31.226Z,8.49
2023-04-25T09:55:36.979Z,8.11
2023-04-25T09:59:40.697Z,8.05
2023-04-25T10:03:44.297Z,8.19
2023-04-25T10:08:13.528Z,8.38
2023-04-25T10:12:15.734Z,8.48
2023-04-25T10:16:18.737Z,8.67
2023-04-25T10:20:20.918Z,8.81
2023-04-25T10:24:23.772Z,8.89
2023-04-25T10:28:26.114Z,9.15
2023-04-25T10:32:30.064Z,9.49
2023-04-25T10:36:33.463Z,9.57
2023-04-25T10:40:35.805Z,9.80
2023-04-25T10:44:38.994Z,9.69
2023-04-25T10:48:47.863Z,9.51
2023-04-25T10:52:49.944Z,9.21
2023-04-25T10:56:52.604Z,9.24
2023-04-25T11:00:57.661Z,9.32
2023-04-25T11:05:00.622Z,9.85
2023-04-25T11:09:03.056Z,9.78
2023-04-25T11:13:05.912Z,9.90
2023-04-25T11:17:08.487Z,10.02
2023-04-25T11:21:11.321Z,10.25
2023-04-25T11:25:16.382Z,10.48
2023-04-25T11:29:18.424Z,10.89
2023-04-25T11:33:25.589Z,11.02
2023-04-25T11:37:27.962Z,11.05
2023-04-25T11:41:31.386Z,10.59
2023-04-25T11:45:33.632Z,10.16
2023-04-25T11:49:36.684Z,9.81
2023-04-25T11:53:42.279Z,9.58
2023-04-25T11:57:46.257Z,9.17
2023-04-25T12:01:50.796Z,8.92
2023-04-25T12:05:53.157Z,8.84
2023-04-25T12:09:55.717Z,8.83
2023-04-25T12:14:03.027Z,8.99
2023-04-25T12:18:05.047Z,9.23
2023-04-25T12:22:23.651Z,9.44
2023-04-25T12:26:26.426Z,9.37
2023-04-25T12:30:29.180Z,9.29
2023-04-25T12:34:33.175Z,9.36
2023-04-25T12:38:41.224Z,9.95
2023-04-25T12:42:43.249Z,10.32
2023-04-25T12:46:46.094Z,10.51
2023-04-25T12:50:50.138Z,10.40
2023-04-25T12:54:52.207Z,10.27
2023-04-25T12:58:54.781Z,9.99
2023-04-25T13:02:56.952Z,10.22
2023-04-25T13:06:59.089Z,10.09
2023-04-25T13:11:01.367Z,9.93
2023-04-25T13:15:03.745Z,9.96
2023-04-25T13:19:06.572Z,9.94
2023-04-25T13:23:08.651Z,10.01
2023-04-25T13:27:10.735Z,10.47
2023-04-25T13:31:12.772Z,10.55
2023-04-25T13:35:14.898Z,10.36
2023-04-25T13:39:17.044Z,10.46
2023-04-25T13:43:25.632Z,10.40
2023-04-25T13:47:28.205Z,10.38
2023-04-25T13:51:32.581Z,10.48
2023-04-25T13:55:37.695Z,10.54
2023-04-25T13:59:41.613Z,10.47
2023-04-25T14:03:43.814Z,10.43
2023-04-25T14:07:46.002Z,10.19
2023-04-25T14:11:48.040Z,10.24
2023-04-25T14:15:51.438Z,10.35
2023-04-25T14:19:53.518Z,10.39
2023-04-25T14:23:55.856Z,10.29
2023-04-25T14:27:57.835Z,10.28
2023-04-25T14:32:00.155Z,10.25
2023-04-25T14:36:02.184Z,10.12
2023-04-25T14:40:05.523Z,10.04
2023-04-25T14:44:07.600Z,9.98
2023-04-25T14:48:09.777Z,10.00
2023-04-25T14:52:11.918Z,10.05
2023-04-25T14:56:14.038Z,10.24
2023-04-25T15:00:17.379Z,10.30
2023-04-25T15:04:19.831Z,10.28
2023-04-25T15:08:22.080Z,10.26
2023-04-25T15:12:24.562Z,10.23
2023-04-25T15:16:27.280Z,10.28
2023-04-25T15:20:29.463Z,10.36
2023-04-25T15:24:31.672Z,10.42
2023-04-25T15:28:34.653Z,10.49
2023-04-25T15:32:36.706Z,10.43
2023-04-25T15:36:38.723Z,10.31
2023-04-25T15:40:41.235Z,10.19
2023-04-25T15:44:43.362Z,10.18
2023-04-25T15:48:45.949Z,10.18
2023-04-25T15:52:49.567Z,10.21
2023-04-25T15:56:51.596Z,10.12
2023-04-25T16:00:55.543Z,9.90
2023-04-25T16:04:57.950Z,9.67
2023-04-25T16:09:00.356Z,9.47
2023-04-25T16:13:02.530Z,9.35
2023-04-25T16:17:04.545Z,9.25
2023-04-25T16:21:06.643Z,9.05
2023-04-25T16:25:09.403Z,9.02
2023-04-25T16:29:12.598Z,9.21
2023-04-25T16:33:15.178Z,9.42
2023-04-25T16:37:17.270Z,9.42
2023-04-25T16:41:19.786Z,9.30
2023-04-25T16:45:22.180Z,9.16
2023-04-25T16:49:24.176Z,9.14
2023-04-25T16:53:26.725Z,9.25
2023-04-25T16:57:28.820Z,9.39
2023-04-25T17:01:31.099Z,9.44
2023-04-25T17:05:34.208Z,9.51
2023-04-25T17:09:36.692Z,9.48
2023-04-25T17:13:38.754Z,9.44
2023-04-25T17:17:40.934Z,9.41
2023-04-25T17:21:43.891Z,9.23
2023-04-25T17:25:46.178Z,9.13
2023-04-25T17:29:48.175Z,9.06
2023-04-25T17:33:50.593Z,9.07
2023-04-25T17:37:52.663Z,8.98
2023-04-25T17:41:54.750Z,8.88
2023-04-25T17:45:56.983Z,8.77
2023-04-25T17:49:59.033Z,8.61
2023-04-25T17:54:01.130Z,8.47
2023-04-25T17:58:03.173Z,8.37
2023-04-25T18:02:05.318Z,8.24
2023-04-25T18:06:07.332Z,8.12
2023-04-25T18:10:11.687Z,7.99
2023-04-25T18:14:14.847Z,7.81
2023-04-25T18:18:20.416Z,7.73
2023-04-25T18:22:22.607Z,7.64
2023-04-25T18:26:24.631Z,7.59
2023-04-25T18:30:26.902Z,7.49
2023-04-25T18:34:28.927Z,7.35
2023-04-25T18:38:35.834Z,7.23
2023-04-25T18:42:38.403Z,7.22
2023-04-25T18:46:43.613Z,7.20
2023-04-25T18:50:45.770Z,7.15
2023-04-25T18:54:48.051Z,7.08
2023-04-25T18:58:53.868Z,7.02
2023-04-25T19:03:03.207Z,6.96
2023-04-25T19:07:05.361Z,6.98
2023-04-25T19:11:18.154Z,6.92
2023-04-25T19:15:23.133Z,6.82
2023-04-25T19:19:27.238Z,6.74
2023-04-25T19:23:31.198Z,6.65
2023-04-25T19:27:33.588Z,6.61
2023-04-25T19:31:37.279Z,6.57
2023-04-25T19:35:39.461Z,6.53
2023-04-25T19:39:41.838Z,6.49
2023-04-25T19:43:43.917Z,6.40
2023-04-25T19:47:46.157Z,6.35
2023-04-25T19:51:48.188Z,6.38
2023-04-25T19:55:50.377Z,6.36
2023-04-25T19:59:52.528Z,6.39
2023-04-25T20:03:54.984Z,6.39
2023-04-25T20:07:57.193Z,6.42
2023-04-25T20:11:59.198Z,6.41
2023-04-25T20:16:02.725Z,6.47
2023-04-25T20:20:06.452Z,6.48
2023-04-25T20:24:08.601Z,6.55
2023-04-25T20:28:10.606Z,6.56
2023-04-25T20:32:12.896Z,6.54
2023-04-25T20:36:15.555Z,6.61
2023-04-25T20:40:17.575Z,6.51
2023-04-25T20:44:22.585Z,6.41
2023-04-25T20:48:24.700Z,6.31
2023-04-25T20:52:26.725Z,6.23
2023-04-25T20:56:28.746Z,6.01
2023-04-25T21:00:30.858Z,5.76
2023-04-25T21:04:32.983Z,5.72
2023-04-25T21:08:35.194Z,5.57
2023-04-25T21:12:37.269Z,5.41
2023-04-25T21:16:40.689Z,5.25
2023-04-25T21:20:42.756Z,4.92
2023-04-25T21:24:44.836Z,4.58
2023-04-25T21:28:47.051Z,4.50
2023-04-25T21:32:52.598Z,4.64
2023-04-25T21:36:54.715Z,4.61
2023-04-25T21:40:56.854Z,4.57
2023-04-25T21:44:58.857Z,4.47
2023-04-25T21:49:01.005Z,4.30
2023-04-25T21:53:03.688Z,4.12
2023-04-25T21:57:05.739Z,4.02
2023-04-25T22:01:07.790Z,4.09
2023-04-25T22:05:10.417Z,4.16
2023-04-25T22:09:12.977Z,4.17
2023-04-25T22:13:15.303Z,4.20
2023-04-25T22:17:17.931Z,4.07
2023-04-25T22:21:20.370Z,3.96
2023-04-25T22:25:22.649Z,4.05
2023-04-25T22:29:24.747Z,3.99
2023-04-25T22:33:27.410Z,3.97
2023-04-25T22:37:29.633Z,3.88
2023-04-25T22:41:32.102Z,3.86
2023-04-25T22:45:35.639Z,3.82
2023-04-25T22:49:37.691Z,3.86
2023-04-25T22:53:41.876Z,3.71
2023-04-25T22:57:44.034Z,3.70
2023-04-25T23:01:47.056Z,3.76
2023-04-25T23:05:49.517Z,3.79
2023-04-25T23:09:52.020Z,3.80
2023-04-25T23:13:54.032Z,3.78
2023-04-25T23:17:57.001Z,3.59
2023-04-25T23:21:59.853Z,3.41
2023-04-25T23:26:11.644Z,3.05
2023-04-25T23:30:15.264Z,2.72
2023-04-25T23:34:17.293Z,2.48
2023-04-25T23:38:20.770Z,2.57
2023-04-25T23:42:22.758Z,2.41
2023-04-25T23:46:25.851Z,2.43
2023-04-25T23:50:27.926Z,2.34
2023-04-25T23:54:29.942Z,2.44
2023-04-25T23:58:31.978Z,2.58
